Time;durP1;ratioP1;P1;durP2;ratioP2;P2;SDS_P1;SDS_P2;PMS_P1;PMS_P2;Temp;Humidity;BMP_temperature;BMP_pressure;BME280_temperature;BME280_humidity;BME280_pressure;Samples;Min_cycle;Max_cycle;Signal;HPM_P1;HPM_P2
2023/09/08 00:01:57;;;;;;;11.43;8.23;;;18.00;1.00;;;;;;5156157;27;20046;-27
2023/09/08 00:04:23;;;;;;;17.48;9.65;;;18.00;1.00;;;;;;5156157;27;20054;-26
2023/09/08 00:06:49;;;;;;;14.48;9.30;;;17.90;1.00;;;;;;5155177;27;20095;-26
2023/09/08 00:09:15;;;;;;;18.73;10.70;;;17.90;1.00;;;;;;5155349;27;20054;-25
2023/09/08 00:11:41;;;;;;;11.93;9.10;;;17.80;1.00;;;;;;5156517;27;20049;-25
2023/09/08 00:14:06;;;;;;;14.77;10.07;;;17.80;1.00;;;;;;5156781;27;20472;-25
2023/09/08 00:16:32;;;;;;;14.40;10.07;;;17.70;1.00;;;;;;5156210;27;20080;-26
2023/09/08 00:18:58;;;;;;;15.02;9.90;;;17.60;1.00;;;;;;5156101;27;20080;-26
2023/09/08 00:21:25;;;;;;;14.90;9.90;;;17.60;1.00;;;;;;5156095;27;20038;-24
2023/09/08 00:23:54;;;;;;;12.65;10.85;;;17.50;33.10;;;;;;5156597;27;20379;-27
2023/09/08 00:26:20;;;;;;;11.82;10.20;;;17.50;87.10;;;;;;5155909;27;20078;-26
2023/09/08 00:28:47;;;;;;;13.77;9.70;;;17.40;99.90;;;;;;5155950;27;20095;-26
2023/09/08 00:31:12;;;;;;;13.88;10.00;;;17.40;99.90;;;;;;5155894;27;20049;-26
2023/09/08 00:33:39;;;;;;;13.93;11.32;;;17.30;99.90;;;;;;5155793;27;20062;-26
2023/09/08 00:36:04;;;;;;;18.42;10.73;;;17.30;99.90;;;;;;5154660;27;20054;-26
2023/09/08 00:38:30;;;;;;;14.88;10.38;;;17.20;99.90;;;;;;5156266;27;20039;-26
2023/09/08 00:40:56;;;;;;;12.75;9.90;;;17.20;99.90;;;;;;5154532;27;20045;-26
2023/09/08 00:43:21;;;;;;;17.60;10.43;;;17.20;99.90;;;;;;5154817;27;20053;-26
2023/09/08 00:45:48;;;;;;;13.38;11.82;;;17.20;99.90;;;;;;5155453;27;20047;-26
2023/09/08 00:48:14;;;;;;;13.65;10.40;;;17.10;99.90;;;;;;5154269;27;20525;-26
2023/09/08 00:50:40;;;;;;;13.98;11.05;;;17.10;99.90;;;;;;5154339;27;20054;-27
2023/09/08 00:53:06;;;;;;;13.80;10.50;;;17.10;99.90;;;;;;5155480;27;20099;-26
2023/09/08 00:55:33;;;;;;;16.23;11.38;;;17.10;99.90;;;;;;5154423;27;20043;-26
2023/09/08 00:58:00;;;;;;;15.38;10.70;;;17.10;99.90;;;;;;5155487;27;20042;-26
2023/09/08 01:00:25;;;;;;;15.05;10.38;;;17.00;99.90;;;;;;5156300;27;20046;-26
2023/09/08 01:02:52;;;;;;;14.25;10.73;;;17.00;99.90;;;;;;5155396;27;20042;-26
2023/09/08 01:05:18;;;;;;;13.57;9.90;;;16.90;99.90;;;;;;5155384;27;20425;-26
2023/09/08 01:07:46;;;;;;;12.30;10.38;;;16.90;99.90;;;;;;5154408;27;20133;-26
2023/09/08 01:10:12;;;;;;;16.75;11.05;;;16.90;99.90;;;;;;5137340;27;20056;-27
2023/09/08 01:12:37;;;;;;;13.55;10.70;;;16.80;99.90;;;;;;5156168;27;20093;-26
2023/09/08 01:15:07;;;;;;;10.48;9.38;;;16.80;99.90;;;;;;5154974;27;20500;-26
2023/09/08 01:17:36;;;;;;;11.43;9.60;;;16.70;99.90;;;;;;5154596;27;20051;-26
2023/09/08 01:20:17;;;;;;;12.43;9.52;;;16.70;99.90;;;;;;5154235;27;20045;-26
2023/09/08 01:22:54;;;;;;;15.20;10.85;;;16.70;99.90;;;;;;5155281;27;20046;-26
2023/09/08 01:25:25;;;;;;;11.40;9.90;;;16.70;99.90;;;;;;5155241;27;20133;-26
2023/09/08 01:27:53;;;;;;;10.77;9.65;;;16.70;99.90;;;;;;5154533;27;20050;-26
2023/09/08 01:30:21;;;;;;;11.50;9.85;;;16.70;99.90;;;;;;5155145;27;20050;-26
2023/09/08 01:32:47;;;;;;;14.85;9.90;;;16.70;99.90;;;;;;5155115;27;20078;-26
2023/09/08 01:35:13;;;;;;;12.40;9.75;;;16.70;99.90;;;;;;5155658;27;20042;-26
2023/09/08 01:37:45;;;;;;;13.52;9.63;;;16.60;99.90;;;;;;5155652;27;20054;-26
2023/09/08 01:40:11;;;;;;;11.37;9.23;;;16.60;99.90;;;;;;5137393;27;20403;-26
2023/09/08 01:42:38;;;;;;;12.13;9.02;;;16.50;99.90;;;;;;5155057;27;20125;-26
2023/09/08 01:45:04;;;;;;;12.25;9.30;;;16.50;99.90;;;;;;5154966;27;20043;-25
2023/09/08 01:47:30;;;;;;;11.38;9.70;;;16.50;99.90;;;;;;5153418;27;20169;-26
2023/09/08 01:49:56;;;;;;;12.63;9.57;;;16.50;99.90;;;;;;5154279;27;20057;-27
2023/09/08 01:52:21;;;;;;;14.27;9.20;;;16.50;99.90;;;;;;5154894;27;20039;-26
2023/09/08 01:54:47;;;;;;;12.18;10.02;;;16.50;99.90;;;;;;5154978;27;20042;-26
2023/09/08 01:57:13;;;;;;;14.02;9.50;;;16.40;99.90;;;;;;5153773;27;20077;-26
2023/09/08 01:59:39;;;;;;;12.85;9.45;;;16.40;99.90;;;;;;5155491;27;20047;-26
2023/09/08 02:02:04;;;;;;;11.95;9.35;;;16.30;99.90;;;;;;5154879;27;20078;-26
2023/09/08 02:04:30;;;;;;;14.20;9.57;;;16.30;99.90;;;;;;5153351;27;20446;-26
2023/09/08 02:06:56;;;;;;;13.25;9.77;;;16.20;99.90;;;;;;5153531;27;20121;-26
2023/09/08 02:09:22;;;;;;;12.88;10.10;;;16.20;99.90;;;;;;5155048;27;20043;-27
2023/09/08 02:11:47;;;;;;;14.38;10.13;;;16.20;99.90;;;;;;5154038;27;20528;-26
2023/09/08 02:14:13;;;;;;;14.77;11.00;;;16.20;99.90;;;;;;5154701;27;20043;-26
2023/09/08 02:16:39;;;;;;;15.50;10.15;;;16.10;99.90;;;;;;5154661;27;20122;-26
2023/09/08 02:19:05;;;;;;;11.00;9.90;;;16.10;99.90;;;;;;5153234;27;20522;-26
2023/09/08 02:21:31;;;;;;;13.63;10.05;;;16.10;99.90;;;;;;5155258;27;20046;-26
2023/09/08 02:23:56;;;;;;;13.98;9.95;;;16.10;99.90;;;;;;5158018;27;20078;-26
2023/09/08 02:26:22;;;;;;;11.45;10.07;;;16.10;99.90;;;;;;5157174;27;20091;-26
2023/09/08 02:28:48;;;;;;;16.10;9.95;;;16.10;99.90;;;;;;5140545;27;20095;-26
2023/09/08 02:31:13;;;;;;;10.48;9.38;;;16.10;99.90;;;;;;5158237;27;20038;-26
2023/09/08 02:33:39;;;;;;;11.30;10.07;;;16.10;99.90;;;;;;5158206;27;20046;-26
2023/09/08 02:36:06;;;;;;;11.60;9.40;;;16.10;99.90;;;;;;5156954;27;20508;-26
2023/09/08 02:38:34;;;;;;;16.00;10.50;;;16.00;99.90;;;;;;5158635;27;20365;-26
2023/09/08 02:41:00;;;;;;;13.27;9.90;;;16.10;99.90;;;;;;5157979;27;20046;-26
2023/09/08 02:43:27;;;;;;;13.27;10.35;;;16.00;99.90;;;;;;5158030;27;20038;-26
2023/09/08 02:45:52;;;;;;;14.98;10.32;;;16.00;99.90;;;;;;5157887;27;20039;-26
2023/09/08 02:48:18;;;;;;;13.00;9.60;;;16.00;99.90;;;;;;5157504;27;20061;-26
2023/09/08 02:50:44;;;;;;;12.23;10.00;;;16.10;99.90;;;;;;5157875;27;20115;-26
2023/09/08 02:53:10;;;;;;;12.90;8.85;;;16.10;99.90;;;;;;5157781;27;20042;-26
2023/09/08 02:55:35;;;;;;;13.90;10.23;;;16.10;99.90;;;;;;5157720;27;20043;-26
2023/09/08 02:58:01;;;;;;;14.43;10.25;;;16.10;99.90;;;;;;5158310;27;20043;-26
2023/09/08 03:00:27;;;;;;;10.52;9.38;;;16.10;99.90;;;;;;5157502;27;20043;-26
2023/09/08 03:02:52;;;;;;;13.05;10.65;;;16.00;99.90;;;;;;5157636;27;20075;-26
2023/09/08 03:05:18;;;;;;;10.52;8.80;;;16.00;99.90;;;;;;5158176;27;20110;-26
2023/09/08 03:07:47;;;;;;;13.93;10.38;;;15.90;99.90;;;;;;5157482;27;20043;-26
2023/09/08 03:10:13;;;;;;;12.98;10.68;;;15.80;99.90;;;;;;5157514;27;20061;-26
2023/09/08 03:12:38;;;;;;;11.40;9.80;;;15.80;99.90;;;;;;5157412;27;20043;-27
2023/09/08 03:15:05;;;;;;;11.07;9.73;;;15.80;99.90;;;;;;5157355;27;20043;-26
2023/09/08 03:17:30;;;;;;;14.32;10.32;;;15.70;99.90;;;;;;5158196;27;20039;-26
2023/09/08 03:19:56;;;;;;;13.88;10.70;;;15.70;99.90;;;;;;5156156;27;20104;-26
2023/09/08 03:22:23;;;;;;;12.35;10.30;;;15.60;99.90;;;;;;5157189;27;20444;-26
2023/09/08 03:24:48;;;;;;;16.70;11.95;;;15.60;99.90;;;;;;5156233;27;20086;-26
2023/09/08 03:27:14;;;;;;;15.85;11.05;;;15.70;99.90;;;;;;5157069;27;20086;-26
2023/09/08 03:29:40;;;;;;;12.13;10.82;;;15.60;99.90;;;;;;5155955;27;20085;-26
2023/09/08 03:32:05;;;;;;;11.63;10.40;;;15.60;99.90;;;;;;5156571;27;20046;-26
2023/09/08 03:34:31;;;;;;;12.90;11.15;;;15.60;99.90;;;;;;5156935;27;20043;-26
2023/09/08 03:36:57;;;;;;;12.52;10.88;;;15.60;99.90;;;;;;5156950;27;20042;-26
2023/09/08 03:39:23;;;;;;;13.57;12.07;;;15.50;99.90;;;;;;5157727;27;20044;-26
2023/09/08 03:41:48;;;;;;;14.45;11.98;;;15.50;99.90;;;;;;5156295;27;20533;-26
2023/09/08 03:44:14;;;;;;;13.18;10.75;;;15.50;99.90;;;;;;5156815;27;20049;-26
2023/09/08 03:46:40;;;;;;;14.63;11.63;;;15.40;99.90;;;;;;5155236;27;20047;-25
2023/09/08 03:49:07;;;;;;;13.25;11.27;;;15.40;99.90;;;;;;5156640;27;20123;-26
2023/09/08 03:51:33;;;;;;;12.23;10.93;;;15.40;99.90;;;;;;5156654;27;20082;-26
2023/09/08 03:53:58;;;;;;;16.45;11.93;;;15.40;99.90;;;;;;5157143;27;20135;-26
2023/09/08 03:56:24;;;;;;;13.18;11.82;;;15.40;99.90;;;;;;5157390;27;20380;-26
2023/09/08 03:58:50;;;;;;;16.35;12.02;;;15.40;99.90;;;;;;5156500;27;20361;-26
2023/09/08 04:01:16;;;;;;;16.73;11.48;;;15.40;99.90;;;;;;5155493;27;20038;-26
2023/09/08 04:03:41;;;;;;;17.77;11.18;;;15.30;99.90;;;;;;5156373;27;20114;-26
2023/09/08 04:06:09;;;;;;;17.52;11.95;;;15.30;99.90;;;;;;5155256;27;20539;-26
2023/09/08 04:08:34;;;;;;;13.20;11.52;;;15.30;99.90;;;;;;5155068;27;20051;-26
2023/09/08 04:11:00;;;;;;;16.00;12.50;;;15.20;99.90;;;;;;5155268;27;20046;-26
2023/09/08 04:13:26;;;;;;;15.65;11.98;;;15.20;99.90;;;;;;5156260;27;20046;-26
2023/09/08 04:15:51;;;;;;;16.70;12.40;;;15.10;99.90;;;;;;5155191;27;20053;-26
2023/09/08 04:18:17;;;;;;;14.68;11.50;;;15.10;99.90;;;;;;5155009;27;20047;-27
2023/09/08 04:20:43;;;;;;;15.77;12.40;;;15.10;99.90;;;;;;5155150;27;20125;-26
2023/09/08 04:23:09;;;;;;;16.38;13.07;;;15.00;99.90;;;;;;5156002;27;20051;-26
2023/09/08 04:25:36;;;;;;;16.52;13.52;;;15.00;99.90;;;;;;5154829;27;20143;-26
2023/09/08 04:28:02;;;;;;;14.57;12.65;;;15.00;99.90;;;;;;5156805;27;20046;-26
2023/09/08 04:30:28;;;;;;;18.48;12.68;;;15.00;99.90;;;;;;5155955;27;20050;-26
2023/09/08 04:32:53;;;;;;;16.13;13.38;;;15.00;99.90;;;;;;5154827;27;20045;-26
2023/09/08 04:35:19;;;;;;;17.17;12.85;;;15.10;99.90;;;;;;5138422;27;20090;-26
2023/09/08 04:37:45;;;;;;;14.68;13.10;;;15.00;99.90;;;;;;5156125;27;20047;-26
2023/09/08 04:40:10;;;;;;;14.85;13.13;;;15.00;99.90;;;;;;5155510;27;20504;-26
2023/09/08 04:42:36;;;;;;;17.85;13.27;;;15.10;99.90;;;;;;5155754;27;20047;-26
2023/09/08 04:45:02;;;;;;;16.17;12.05;;;15.00;99.90;;;;;;5153909;27;20043;-26
2023/09/08 04:47:28;;;;;;;14.70;13.07;;;15.00;99.90;;;;;;5155436;27;20050;-26
2023/09/08 04:49:53;;;;;;;16.45;12.85;;;15.00;99.90;;;;;;5155667;27;20049;-26
2023/09/08 04:52:19;;;;;;;17.48;12.70;;;15.00;99.90;;;;;;5137328;27;20510;-26
2023/09/08 04:54:45;;;;;;;14.98;13.07;;;15.00;99.90;;;;;;5155206;27;20050;-26
2023/09/08 04:57:11;;;;;;;21.13;13.70;;;15.00;99.90;;;;;;5155571;27;20038;-26
2023/09/08 04:59:38;;;;;;;14.30;12.77;;;15.00;99.90;;;;;;5154504;27;20137;-26
2023/09/08 05:02:04;;;;;;;16.23;13.90;;;15.00;99.90;;;;;;5137513;27;20515;-26
2023/09/08 05:04:30;;;;;;;15.05;12.40;;;15.00;99.90;;;;;;5137987;27;20078;-26
2023/09/08 05:06:56;;;;;;;17.50;13.20;;;15.00;99.90;;;;;;5155380;27;20396;-26
2023/09/08 05:09:21;;;;;;;17.70;14.45;;;14.90;99.90;;;;;;5154468;27;20050;-26
2023/09/08 05:11:47;;;;;;;15.43;12.70;;;14.90;99.90;;;;;;5155304;27;20456;-26
2023/09/08 05:14:13;;;;;;;17.30;13.65;;;15.00;99.90;;;;;;5155670;27;20130;-26
2023/09/08 05:16:49;;;;;;;13.60;11.90;;;15.00;99.90;;;;;;5155834;27;20495;-26
2023/09/08 05:19:15;;;;;;;14.85;13.35;;;15.00;99.90;;;;;;5155250;27;20047;-26
2023/09/08 05:21:43;;;;;;;16.35;12.25;;;15.10;99.90;;;;;;5155203;27;20065;-26
2023/09/08 05:24:09;;;;;;;14.00;12.60;;;15.10;99.90;;;;;;5154545;27;20054;-27
2023/09/08 05:26:37;;;;;;;15.00;13.25;;;15.10;99.90;;;;;;5155140;27;20469;-26
2023/09/08 05:29:03;;;;;;;15.35;13.10;;;15.20;99.90;;;;;;5154204;27;20046;-26
2023/09/08 05:31:28;;;;;;;16.73;12.55;;;15.20;99.90;;;;;;5155165;27;20514;-26
2023/09/08 05:33:55;;;;;;;14.90;11.88;;;15.30;99.90;;;;;;5155105;27;20396;-26
2023/09/08 05:36:20;;;;;;;15.45;12.07;;;15.30;99.90;;;;;;5154226;27;20039;-26
2023/09/08 05:38:46;;;;;;;16.83;12.55;;;15.30;99.90;;;;;;5154648;27;20115;-26
2023/09/08 05:41:12;;;;;;;16.00;12.40;;;15.40;99.90;;;;;;5155107;27;20043;-26
2023/09/08 05:43:37;;;;;;;15.05;12.45;;;15.40;99.90;;;;;;5136789;27;20046;-26
2023/09/08 05:46:04;;;;;;;14.77;12.55;;;15.40;99.90;;;;;;5153777;27;20051;-26
2023/09/08 05:48:29;;;;;;;14.40;11.95;;;15.40;99.90;;;;;;5155292;27;20065;-26
2023/09/08 05:50:56;;;;;;;18.33;13.23;;;15.40;99.90;;;;;;5154966;27;20039;-26
2023/09/08 05:53:21;;;;;;;13.75;12.27;;;15.50;99.90;;;;;;5154835;27;20130;-26
2023/09/08 05:55:47;;;;;;;15.07;12.18;;;15.50;99.90;;;;;;5155551;27;20145;-27
2023/09/08 05:58:13;;;;;;;16.30;12.02;;;15.60;99.90;;;;;;5158881;27;20046;-26
2023/09/08 06:00:38;;;;;;;17.00;12.32;;;15.70;99.90;;;;;;5157862;27;20529;-26
2023/09/08 06:03:05;;;;;;;12.82;11.50;;;15.70;99.90;;;;;;5157918;27;20392;-26
2023/09/08 06:05:31;;;;;;;14.73;10.60;;;15.80;99.90;;;;;;5123579;27;20107;-26
2023/09/08 06:07:56;;;;;;;14.55;11.27;;;15.90;99.90;;;;;;5158736;27;20477;-26
2023/09/08 06:10:22;;;;;;;13.65;10.60;;;16.00;99.90;;;;;;5140392;27;20083;-27
2023/09/08 06:12:50;;;;;;;15.55;11.15;;;16.10;99.90;;;;;;5158552;27;20491;-26
2023/09/08 06:15:17;;;;;;;11.77;10.52;;;16.10;99.90;;;;;;5158538;27;20574;-26
2023/09/08 06:17:42;;;;;;;15.23;11.00;;;16.20;99.90;;;;;;5157349;27;20385;-26
2023/09/08 06:20:09;;;;;;;13.57;11.35;;;16.30;99.90;;;;;;5158545;27;20058;-26
2023/09/08 06:22:34;;;;;;;13.45;10.45;;;16.40;99.90;;;;;;5156930;27;20042;-26
2023/09/08 06:25:00;;;;;;;13.45;11.23;;;16.40;99.90;;;;;;5157418;27;20074;-27
2023/09/08 06:27:26;;;;;;;12.32;10.10;;;16.50;99.90;;;;;;5157069;27;20038;-26
2023/09/08 06:29:51;;;;;;;14.43;10.60;;;16.60;99.90;;;;;;5158503;27;20078;-26
2023/09/08 06:32:17;;;;;;;12.00;10.73;;;16.70;99.90;;;;;;5158127;27;20118;-26
2023/09/08 06:34:43;;;;;;;17.50;11.30;;;16.70;99.90;;;;;;5157862;27;20047;-26
2023/09/08 06:37:09;;;;;;;14.70;11.15;;;16.80;99.90;;;;;;5156774;27;20426;-26
2023/09/08 06:39:34;;;;;;;10.32;9.30;;;16.90;99.90;;;;;;5156693;27;20043;-27
2023/09/08 06:42:00;;;;;;;11.57;9.55;;;17.00;99.90;;;;;;5156591;27;20047;-26
2023/09/08 06:44:26;;;;;;;10.75;9.63;;;17.10;99.90;;;;;;5157118;27;20095;-26
2023/09/08 06:46:51;;;;;;;17.98;10.05;;;17.20;99.90;;;;;;5157327;27;20050;-25
2023/09/08 06:49:17;;;;;;;13.63;10.13;;;17.20;99.90;;;;;;5139250;27;20058;-26
2023/09/08 06:51:43;;;;;;;11.93;9.40;;;17.30;99.90;;;;;;5157821;27;20056;-26
2023/09/08 06:54:09;;;;;;;16.17;10.07;;;17.40;99.90;;;;;;5156416;27;20057;-26
2023/09/08 06:56:35;;;;;;;10.18;9.10;;;17.50;99.90;;;;;;5139362;27;20035;-26
2023/09/08 06:59:01;;;;;;;11.27;9.70;;;17.60;99.90;;;;;;5157045;27;20039;-26
2023/09/08 07:01:27;;;;;;;12.02;9.48;;;17.70;99.90;;;;;;5157640;27;20400;-28
2023/09/08 07:03:53;;;;;;;10.13;9.00;;;17.80;99.90;;;;;;5156285;27;20046;-26
2023/09/08 07:06:22;;;;;;;11.93;9.05;;;17.90;99.90;;;;;;5157715;27;20039;-27
2023/09/08 07:08:50;;;;;;;9.82;8.35;;;18.00;99.90;;;;;;5156127;27;20046;-26
2023/09/08 07:11:16;;;;;;;12.73;9.13;;;18.10;99.90;;;;;;5139574;27;20055;-26
2023/09/08 07:13:42;;;;;;;16.08;9.90;;;18.20;99.90;;;;;;5157510;27;20054;-27
2023/09/08 07:16:07;;;;;;;11.45;9.07;;;18.30;99.90;;;;;;5156339;27;20038;-26
2023/09/08 07:18:37;;;;;;;12.90;8.65;;;18.50;99.90;;;;;;5157315;27;20050;-27
2023/09/08 07:21:03;;;;;;;11.02;9.43;;;18.60;99.90;;;;;;5156844;27;20513;-26
2023/09/08 07:23:29;;;;;;;10.60;8.90;;;18.70;99.90;;;;;;5157363;27;20061;-27
2023/09/08 07:25:54;;;;;;;10.52;8.98;;;18.80;99.90;;;;;;5157222;27;20121;-28
2023/09/08 07:28:20;;;;;;;12.32;8.57;;;18.90;99.90;;;;;;5157241;27;20054;-27
2023/09/08 07:30:46;;;;;;;12.52;8.82;;;19.10;99.90;;;;;;5156056;27;20047;-26
2023/09/08 07:33:12;;;;;;;10.65;8.43;;;19.20;99.90;;;;;;5157099;27;20492;-27
2023/09/08 07:35:39;;;;;;;9.90;8.90;;;;;;;;;;5157103;27;20053;-25
2023/09/08 07:38:05;;;;;;;10.25;7.60;;;19.50;99.90;;;;;;5157549;27;20042;-25
2023/09/08 07:40:35;;;;;;;13.00;8.77;;;19.60;99.90;;;;;;5139128;27;20045;-26
2023/09/08 07:43:01;;;;;;;13.30;8.32;;;19.70;99.90;;;;;;5156917;27;20133;-26
2023/09/08 07:45:27;;;;;;;9.70;7.40;;;19.90;99.90;;;;;;5155847;27;20093;-27
2023/09/08 07:47:52;;;;;;;13.77;7.63;;;20.00;99.90;;;;;;5157129;27;20480;-26
2023/09/08 07:50:27;;;;;;;10.25;7.35;;;20.10;99.90;;;;;;5156751;27;20047;-27
2023/09/08 07:52:55;;;;;;;8.65;7.55;;;20.20;99.90;;;;;;5156143;27;20054;-26
2023/09/08 07:55:22;;;;;;;9.20;7.82;;;20.30;85.60;;;;;;5157280;27;20058;-27
2023/09/08 07:57:49;;;;;;;10.00;8.18;;;20.40;21.90;;;;;;5156871;27;20039;-26
2023/09/08 08:00:15;;;;;;;7.78;6.93;;;20.50;7.90;;;;;;5155403;27;20043;-26
2023/09/08 08:02:49;;;;;;;10.93;7.53;;;20.60;1.00;;;;;;5138235;27;20057;-26
2023/09/08 08:05:15;;;;;;;8.43;6.90;;;20.70;1.00;;;;;;5156480;27;20043;-26
2023/09/08 08:07:43;;;;;;;8.55;6.72;;;20.90;1.00;;;;;;5156311;27;20042;-26
2023/09/08 08:10:10;;;;;;;10.07;6.65;;;21.00;1.00;;;;;;5156390;27;20039;-26
2023/09/08 08:12:37;;;;;;;9.38;6.05;;;21.10;1.00;;;;;;5156015;27;20460;-26
2023/09/08 08:15:04;;;;;;;9.70;6.45;;;21.30;1.00;;;;;;5155332;27;20058;-27
2023/09/08 08:17:30;;;;;;;6.63;6.00;;;21.40;1.00;;;;;;5155037;27;20034;-27
2023/09/08 08:19:58;;;;;;;11.43;6.60;;;21.60;99.90;;;;;;5155240;27;20085;-26
2023/09/08 08:22:25;;;;;;;7.95;6.25;;;21.70;99.90;;;;;;5156173;27;20377;-26
2023/09/08 08:24:51;;;;;;;7.53;6.40;;;21.80;99.90;;;;;;5137887;27;20183;-26
2023/09/08 08:27:16;;;;;;;7.20;5.95;;;21.90;99.90;;;;;;5155945;27;20129;-27
2023/09/08 08:29:42;;;;;;;9.90;6.85;;;22.10;99.90;;;;;;5155975;27;20039;-26
2023/09/08 08:32:09;;;;;;;7.43;5.95;;;22.20;99.90;;;;;;5155955;27;20046;-27
2023/09/08 08:34:34;;;;;;;6.82;5.97;;;22.30;99.90;;;;;;5155783;27;20043;-26
2023/09/08 08:37:00;;;;;;;9.27;6.22;;;22.40;99.90;;;;;;5156438;27;20125;-26
2023/09/08 08:39:26;;;;;;;6.65;5.95;;;22.60;99.90;;;;;;5154873;27;20049;-26
2023/09/08 08:41:51;;;;;;;11.43;5.10;;;22.80;99.90;;;;;;5154867;27;20050;-27
2023/09/08 08:44:19;;;;;;;6.97;5.72;;;22.90;99.90;;;;;;5156080;27;20468;-27
2023/09/08 08:46:46;;;;;;;10.10;5.63;;;23.10;1.20;;;;;;5155587;27;20042;-26
2023/09/08 08:49:15;;;;;;;8.38;5.13;;;23.30;1.00;;;;;;5154466;27;20082;-28
2023/09/08 08:51:48;;;;;;;5.72;4.28;;;23.50;1.00;;;;;;5154498;27;20095;-27
2023/09/08 08:54:15;;;;;;;10.60;4.90;;;23.70;99.90;;;;;;5156240;27;20058;-26
2023/09/08 08:56:42;;;;;;;6.18;5.07;;;23.90;99.90;;;;;;5155584;27;20085;-27
2023/09/08 08:59:10;;;;;;;5.20;4.57;;;24.10;99.90;;;;;;5155561;27;20054;-27
2023/09/08 09:01:36;;;;;;;6.45;4.05;;;24.20;99.90;;;;;;5154407;27;20086;-27
2023/09/08 09:04:05;;;;;;;8.85;4.43;;;24.40;99.90;;;;;;5154563;27;20047;-27
2023/09/08 09:06:32;;;;;;;7.30;4.60;;;24.60;99.90;;;;;;5155343;27;20110;-25
2023/09/08 09:08:59;;;;;;;7.28;4.43;;;25.40;93.80;;;;;;5155769;27;20046;-26
2023/09/08 09:11:25;;;;;;;5.75;4.15;;;26.50;1.00;;;;;;5154254;27;20082;-28
2023/09/08 09:13:51;;;;;;;6.45;3.80;;;27.60;1.00;;;;;;5155387;27;20074;-27
2023/09/08 09:16:16;;;;;;;7.60;3.72;;;28.20;9.20;;;;;;5155646;27;20043;-27
2023/09/08 09:18:55;;;;;;;8.80;4.00;;;28.90;99.90;;;;;;5154673;27;20130;-28
2023/09/08 09:21:21;;;;;;;5.68;4.53;;;29.40;89.50;;;;;;5137155;27;20050;-27
2023/09/08 09:23:47;;;;;;;5.30;4.32;;;29.70;35.30;;;;;;5155305;27;20043;-28
2023/09/08 09:26:24;;;;;;;7.63;4.20;;;30.00;78.50;;;;;;5155181;27;20064;-26
2023/09/08 09:28:52;;;;;;;7.82;4.80;;;30.10;99.90;;;;;;5155367;27;20047;-27
2023/09/08 09:31:18;;;;;;;4.82;4.13;;;30.30;99.90;;;;;;5157731;27;20065;-27
2023/09/08 09:33:45;;;;;;;8.23;4.80;;;30.50;1.00;;;;;;5159511;27;20122;-27
2023/09/08 09:36:20;;;;;;;6.47;4.43;;;31.00;99.90;;;;;;5159447;27;20039;-26
2023/09/08 09:38:47;;;;;;;12.90;4.45;;;31.20;99.90;;;;;;5160018;27;20087;-27
2023/09/08 09:41:12;;;;;;;6.15;3.53;;;31.20;99.90;;;;;;5158083;27;20058;-27
2023/09/08 09:43:38;;;;;;;4.60;4.15;;;31.10;99.90;;;;;;5123715;27;20043;-28
2023/09/08 09:46:08;;;;;;;5.90;3.88;;;31.10;99.90;;;;;;5158990;27;20388;-27
2023/09/08 09:48:35;;;;;;;5.25;3.95;;;31.10;99.90;;;;;;5157681;27;20507;-27
2023/09/08 09:51:19;;;;;;;5.03;3.92;;;30.90;99.90;;;;;;5159095;27;20042;-26
2023/09/08 09:53:45;;;;;;;6.53;4.35;;;30.90;99.90;;;;;;5158732;27;20043;-27
2023/09/08 09:56:13;;;;;;;6.03;3.75;;;31.30;99.90;;;;;;5159046;27;20395;-27
2023/09/08 09:58:40;;;;;;;7.32;3.92;;;31.50;99.90;;;;;;5157843;27;20053;-27
2023/09/08 10:01:07;;;;;;;5.88;3.80;;;31.50;99.90;;;;;;5157819;27;20046;-27
2023/09/08 10:03:33;;;;;;;5.38;3.40;;;31.80;99.90;;;;;;5159169;27;20058;-27
2023/09/08 10:05:59;;;;;;;5.35;4.05;;;32.20;99.90;;;;;;5158828;27;20050;-27
2023/09/08 10:08:26;;;;;;;9.43;3.90;;;32.30;99.90;;;;;;5158789;27;20039;-27
2023/09/08 10:10:53;;;;;;;4.53;3.67;;;32.60;99.90;;;;;;5140846;27;20146;-27
2023/09/08 10:13:30;;;;;;;6.57;3.55;;;33.00;99.90;;;;;;5158676;27;20054;-27
2023/09/08 10:15:58;;;;;;;4.80;3.60;;;33.20;99.90;;;;;;5158381;27;20444;-28
2023/09/08 10:18:25;;;;;;;5.03;4.03;;;33.30;99.90;;;;;;5158605;27;20053;-27
2023/09/08 10:20:54;;;;;;;6.10;3.30;;;33.10;99.90;;;;;;5159414;27;20064;-28
2023/09/08 10:23:27;;;;;;;5.05;3.60;;;33.40;99.90;;;;;;5158513;27;20179;-28
2023/09/08 10:25:59;;;;;;;5.85;3.50;;;33.10;99.90;;;;;;5159305;27;20424;-28
2023/09/08 10:28:26;;;;;;;3.40;3.05;;;33.50;99.90;;;;;;5158364;27;20058;-27
2023/09/08 10:30:53;;;;;;;5.25;3.83;;;33.50;99.90;;;;;;5158364;27;20499;-28
2023/09/08 10:33:19;;;;;;;4.63;3.30;;;33.60;99.90;;;;;;5158867;27;20137;-28
2023/09/08 10:35:46;;;;;;;6.75;3.72;;;33.60;99.90;;;;;;5158274;27;20046;-27
2023/09/08 10:38:29;;;;;;;5.53;3.53;;;33.30;99.90;;;;;;5156782;27;20515;-28
2023/09/08 10:41:16;;;;;;;6.20;3.80;;;33.50;99.90;;;;;;5157899;27;20492;-27
2023/09/08 10:43:46;;;;;;;4.88;3.80;;;33.40;99.90;;;;;;5157298;27;20046;-27
2023/09/08 10:46:22;;;;;;;6.18;3.80;;;33.70;99.90;;;;;;5158062;27;20093;-28
2023/09/08 10:48:48;;;;;;;8.73;3.63;;;33.40;99.90;;;;;;5158151;27;20055;-28
2023/09/08 10:51:17;;;;;;;6.88;3.35;;;33.20;99.90;;;;;;5157923;27;20175;-28
2023/09/08 10:53:46;;;;;;;9.35;3.78;;;33.20;99.90;;;;;;5156768;27;20046;-28
2023/09/08 10:56:12;;;;;;;7.45;4.35;;;33.50;99.90;;;;;;5157690;27;20392;-28
2023/09/08 10:58:40;;;;;;;5.18;3.78;;;33.30;99.90;;;;;;5156648;27;20120;-28
2023/09/08 11:01:07;;;;;;;6.78;3.70;;;33.50;99.90;;;;;;5157754;27;20184;-28
2023/09/08 11:03:39;;;;;;;6.45;3.53;;;33.80;1.00;;;;;;5157688;27;20053;-28
2023/09/08 11:06:05;;;;;;;;;;;34.10;1.00;;;;;;5157967;27;20042;-28
2023/09/08 11:08:32;;;;;;;10.48;3.58;;;34.00;1.00;;;;;;5157527;27;19980;-28
2023/09/08 11:10:58;;;;;;;6.97;3.25;;;34.30;1.00;;;;;;5157872;27;20043;-28
2023/09/08 11:13:24;;;;;;;5.30;3.50;;;34.30;1.00;;;;;;5122283;27;20103;-28
2023/09/08 11:15:53;;;;;;;5.43;3.33;;;34.30;1.00;;;;;;5157460;27;20043;-27
2023/09/08 11:18:26;;;;;;;5.80;3.72;;;34.30;1.00;;;;;;5139041;27;20047;-28
2023/09/08 11:20:53;;;;;;;7.07;3.65;;;34.50;1.00;;;;;;5156717;27;20055;-28
2023/09/08 11:23:19;;;;;;;6.30;3.60;;;34.50;1.00;;;;;;5155858;27;20524;-28
2023/09/08 11:25:45;;;;;;;8.70;3.60;;;34.60;1.00;;;;;;5157220;27;20122;-28
2023/09/08 11:28:12;;;;;;;7.63;3.17;;;34.80;1.00;;;;;;5157244;27;20046;-28
2023/09/08 11:30:39;;;;;;;5.80;3.47;;;34.30;1.00;;;;;;5157521;27;20202;-28
2023/09/08 11:33:17;;;;;;;8.95;3.42;;;34.50;1.00;;;;;;5157978;27;20082;-28
2023/09/08 11:35:46;;;;;;;4.85;3.50;;;34.70;1.00;;;;;;5157111;27;20111;-28
2023/09/08 11:38:12;;;;;;;5.35;3.70;;;34.90;1.00;;;;;;5156931;27;20054;-28
2023/09/08 11:40:38;;;;;;;6.15;3.75;;;35.10;1.00;;;;;;5157643;27;20039;-28
2023/09/08 11:43:05;;;;;;;5.53;4.00;;;35.20;1.00;;;;;;5156908;27;20129;-28
2023/09/08 11:45:34;;;;;;;7.18;3.80;;;35.40;1.00;;;;;;5156821;27;20038;-28
2023/09/08 11:48:01;;;;;;;5.43;3.03;;;35.20;99.90;;;;;;5138004;27;20055;-28
2023/09/08 11:50:26;;;;;;;6.57;3.65;;;35.30;99.90;;;;;;5155717;27;20045;-28
2023/09/08 11:52:54;;;;;;;5.32;3.72;;;34.70;99.90;;;;;;5156642;27;20046;-28
2023/09/08 11:55:22;;;;;;;5.75;3.60;;;34.30;99.90;;;;;;5156950;27;20046;-28
2023/09/08 11:57:54;;;;;;;5.60;3.60;;;34.10;99.90;;;;;;5156940;27;20117;-28
2023/09/08 12:00:22;;;;;;;5.05;4.07;;;33.60;99.90;;;;;;5156723;27;20103;-28
2023/09/08 12:02:49;;;;;;;4.10;3.70;;;33.30;99.20;;;;;;5156530;27;20078;-28
2023/09/08 12:05:28;;;;;;;6.47;3.45;;;33.60;99.90;;;;;;5157103;27;20388;-28
2023/09/08 12:07:56;;;;;;;4.90;3.55;;;33.90;99.90;;;;;;5156380;27;20038;-28
2023/09/08 12:10:22;;;;;;;6.80;3.25;;;33.50;99.90;;;;;;5156447;27;20093;-28
2023/09/08 12:12:53;;;;;;;5.55;2.92;;;33.90;99.90;;;;;;5156361;27;20042;-28
2023/09/08 12:15:35;;;;;;;4.32;3.20;;;34.20;99.90;;;;;;5155339;27;20487;-30
2023/09/08 12:18:03;;;;;;;6.65;3.25;;;33.80;99.90;;;;;;5155845;27;20048;-29
2023/09/08 12:20:29;;;;;;;4.53;3.22;;;33.60;99.90;;;;;;5156250;27;20435;-28
2023/09/08 12:23:00;;;;;;;9.05;3.13;;;33.60;99.90;;;;;;5155751;27;20042;-28
2023/09/08 12:25:27;;;;;;;4.57;3.20;;;33.70;99.90;;;;;;5156850;27;20046;-28
2023/09/08 12:27:54;;;;;;;3.72;3.00;;;33.80;99.90;;;;;;5156089;27;20038;-28
2023/09/08 12:30:22;;;;;;;4.55;2.97;;;34.10;99.90;;;;;;5155995;27;20488;-28
2023/09/08 12:32:49;;;;;;;5.30;2.90;;;34.60;99.90;;;;;;5155973;27;20485;-28
2023/09/08 12:35:22;;;;;;;7.43;3.22;;;34.30;99.90;;;;;;5154682;27;20072;-27
2023/09/08 12:37:57;;;;;;;3.75;3.05;;;34.40;99.90;;;;;;5156053;27;20089;-28